^^
Your Local Weather - Clay, NY Station Historical Data
Daily Summary for May 21, 2017 Units:  English    Metric   Both
« Previous Day
Next Day »
Daily Weekly Monthly Yearly Custom
  High: Low: Average:
Temperature: 69.7 °F 47.5 °F 59.1 °F
Dew Point: 51.9 °F 32.2 °F 42.6 °F
Humidity: 90% 39% 56%
Wind Speed: 8.0mph 0.0mph 3.2mph
Wind Gust: 11.0mph - -
Wind- - ESE
Pressure: 30.25 in 30.00 in -
Precipitation: 0.35 in    
Historical Graphs
 
 
Tabular Data for May 21, 2017
Time Temperature Dew Point Pressure Wind Wind Speed Wind Gust Humidity Rainfall Rate (Hourly) solar
00:05 47.7 °F 43.1 °F 30.22 in Calm   1.0 mph 84% 0.00 in 0 W/m2
00:11 48.7 °F 43.5 °F 30.23 in Calm     82% 0.00 in 0 W/m2
00:18 48.9 °F 43.3 °F 30.22 in Calm     81% 0.00 in 0 W/m2
00:23 48.7 °F 43.5 °F 30.22 in Calm     82% 0.00 in 0 W/m2
00:29 48.4 °F 43.2 °F 30.22 in Calm     82% 0.00 in 0 W/m2
00:35 48.2 °F 43.3 °F 30.22 in Calm     83% 0.00 in 0 W/m2
00:41 48.0 °F 43.1 °F 30.22 in Calm     83% 0.00 in 0 W/m2
00:48 47.8 °F 43.2 °F 30.23 in Calm     84% 0.00 in 0 W/m2
00:53 47.6 °F 43.0 °F 30.23 in Calm     84% 0.00 in 0 W/m2
01:00 47.5 °F 43.2 °F 30.24 in Calm     85% 0.00 in 0 W/m2
01:06 47.7 °F 43.4 °F 30.24 in Calm     85% 0.00 in 0 W/m2
01:12 48.5 °F 43.3 °F 30.23 in Calm   1.0 mph 82% 0.00 in 0 W/m2
01:18 49.2 °F 43.0 °F 30.24 in Calm   1.0 mph 79% 0.00 in 0 W/m2
01:26 49.7 °F 43.1 °F 30.24 in Calm     78% 0.00 in 0 W/m2
01:32 50.3 °F 42.3 °F 30.24 in ENE 1.0 mph 4.0 mph 74% 0.00 in 0 W/m2
01:38 50.8 °F 42.5 °F 30.23 in ENE 1.0 mph 4.0 mph 73% 0.00 in 0 W/m2
01:44 51.0 °F 42.3 °F 30.23 in East 1.0 mph 1.0 mph 72% 0.00 in 0 W/m2
01:50 51.2 °F 41.7 °F 30.24 in Calm     70% 0.00 in 0 W/m2
01:56 51.4 °F 42.7 °F 30.23 in East 1.0 mph 2.0 mph 72% 0.00 in 0 W/m2
02:03 51.5 °F 41.3 °F 30.23 in East 1.0 mph 1.0 mph 68% 0.00 in 0 W/m2
02:08 51.8 °F 40.0 °F 30.23 in SSE 1.0 mph 1.0 mph 64% 0.00 in 0 W/m2
02:14 52.1 °F 39.9 °F 30.23 in NE 1.0 mph 3.0 mph 63% 0.00 in 0 W/m2
02:20 52.5 °F 39.0 °F 30.23 in East 1.0 mph 1.0 mph 60% 0.00 in 0 W/m2
02:26 52.7 °F 38.8 °F 30.23 in ENE 1.0 mph 1.0 mph 59% 0.00 in 0 W/m2
02:32 52.9 °F 37.6 °F 30.24 in East 1.0 mph 1.0 mph 56% 0.00 in 0 W/m2
02:38 53.1 °F 37.3 °F 30.24 in NE 1.0 mph 2.0 mph 55% 0.00 in 0 W/m2
02:44 53.3 °F 35.6 °F 30.24 in ENE 1.0 mph 4.0 mph 51% 0.00 in 0 W/m2
02:50 53.5 °F 36.8 °F 30.24 in ENE 1.0 mph 2.0 mph 53% 0.00 in 0 W/m2
02:56 53.6 °F 35.9 °F 30.23 in East 1.0 mph 2.0 mph 51% 0.00 in 0 W/m2
03:02 53.6 °F 36.4 °F 30.24 in SE 1.0 mph 1.0 mph 52% 0.00 in 0 W/m2
03:08 53.7 °F 34.5 °F 30.24 in ENE 1.0 mph 4.0 mph 48% 0.00 in 0 W/m2
03:14 53.7 °F 35.5 °F 30.24 in NE 1.0 mph 1.0 mph 50% 0.00 in 0 W/m2
03:20 53.7 °F 34.5 °F 30.24 in Calm     48% 0.00 in 0 W/m2
03:26 53.8 °F 34.0 °F 30.24 in ENE 1.0 mph 2.0 mph 47% 0.00 in 0 W/m2
03:32 53.8 °F 34.6 °F 30.24 in East 1.0 mph 3.0 mph 48% 0.00 in 0 W/m2
03:38 53.7 °F 33.9 °F 30.24 in ENE 1.0 mph 3.0 mph 47% 0.00 in 0 W/m2
03:44 53.7 °F 33.9 °F 30.24 in ENE 1.0 mph 2.0 mph 47% 0.00 in 0 W/m2
03:50 53.7 °F 32.8 °F 30.24 in NE 2.0 mph 2.0 mph 45% 0.00 in 0 W/m2
03:56 53.7 °F 32.8 °F 30.24 in ENE 2.0 mph 3.0 mph 45% 0.00 in 0 W/m2
04:02 53.6 °F 32.8 °F 30.24 in ENE 2.0 mph 2.0 mph 45% 0.00 in 0 W/m2
04:08 53.6 °F 32.8 °F 30.24 in East 2.0 mph 2.0 mph 45% 0.00 in 0 W/m2
04:14 53.6 °F 32.2 °F 30.24 in East 2.0 mph 2.0 mph 44% 0.00 in 0 W/m2
04:20 53.7 °F 32.8 °F 30.24 in ENE 2.0 mph 2.0 mph 45% 0.00 in 0 W/m2
04:26 53.7 °F 32.3 °F 30.24 in ENE 1.0 mph 2.0 mph 44% 0.00 in 0 W/m2
04:32 53.5 °F 33.7 °F 30.24 in East 1.0 mph 3.0 mph 47% 0.00 in 0 W/m2
04:38 53.4 °F 33.1 °F 30.24 in ENE 1.0 mph 3.0 mph 46% 0.00 in 0 W/m2
04:44 53.3 °F 34.1 °F 30.24 in East 1.0 mph 5.0 mph 48% 0.00 in 0 W/m2
04:50 53.2 °F 33.5 °F 30.24 in ENE 2.0 mph 2.0 mph 47% 0.00 in 0 W/m2
04:56 53.1 °F 33.9 °F 30.24 in NE 1.0 mph 4.0 mph 48% 0.00 in 0 W/m2
05:03 53.1 °F 33.4 °F 30.24 in NE 2.0 mph 2.0 mph 47% 0.00 in 0 W/m2
05:08 53.2 °F 33.5 °F 30.24 in East 2.0 mph 6.0 mph 47% 0.00 in 0 W/m2
05:14 53.1 °F 32.8 °F 30.24 in ENE 2.0 mph 3.0 mph 46% 0.00 in 0 W/m2
05:20 53.1 °F 32.8 °F 30.24 in ENE 1.0 mph 1.0 mph 46% 0.00 in 0 W/m2
05:26 53.1 °F 33.4 °F 30.25 in ENE 1.0 mph 4.0 mph 47% 0.00 in 0 W/m2
05:32 53.1 °F 33.4 °F 30.25 in East 2.0 mph 2.0 mph 47% 0.00 in 0 W/m2
05:38 53.0 °F 34.8 °F 30.25 in ENE 1.0 mph 4.0 mph 50% 0.00 in 0 W/m2
05:44 52.9 °F 34.8 °F 30.24 in ESE 2.0 mph 2.0 mph 50% 0.00 in 0 W/m2
05:50 53.0 °F 33.8 °F 30.25 in NE 2.0 mph 4.0 mph 48% 0.00 in 5 W/m2
05:56 53.0 °F 33.8 °F 30.24 in ESE 3.0 mph 9.0 mph 48% 0.00 in 9 W/m2
06:02 53.0 °F 34.3 °F 30.24 in ENE 3.0 mph 4.0 mph 49% 0.00 in 11 W/m2
06:08 52.9 °F 33.7 °F 30.24 in ENE 3.0 mph 4.0 mph 48% 0.00 in 9 W/m2
06:14 52.9 °F 33.7 °F 30.24 in East 3.0 mph 8.0 mph 48% 0.00 in 9 W/m2
06:20 52.8 °F 34.2 °F 30.24 in East 3.0 mph 3.0 mph 49% 0.00 in 14 W/m2
06:26 52.9 °F 34.2 °F 30.24 in East 2.0 mph 3.0 mph 49% 0.00 in 16 W/m2
06:32 52.8 °F 34.2 °F 30.24 in ENE 2.0 mph 4.0 mph 49% 0.00 in 14 W/m2
06:38 52.9 °F 35.2 °F 30.25 in NE 3.0 mph 5.0 mph 51% 0.00 in 12 W/m2
06:44 52.8 °F 35.2 °F 30.25 in ENE 2.0 mph 5.0 mph 51% 0.00 in 16 W/m2
06:50 52.8 °F 35.2 °F 30.25 in East 2.0 mph 5.0 mph 51% 0.00 in 19 W/m2
06:58 52.8 °F 35.2 °F 30.25 in East 2.0 mph 5.0 mph 51% 0.00 in 40 W/m2
07:04 52.9 °F 34.8 °F 30.25 in East 2.0 mph 6.0 mph 50% 0.00 in 56 W/m2
07:10 53.0 °F 35.3 °F 30.24 in East 3.0 mph 3.0 mph 51% 0.00 in 53 W/m2
07:16 53.0 °F 35.3 °F 30.24 in South 3.0 mph 5.0 mph 51% 0.00 in 56 W/m2
07:22 53.0 °F 35.8 °F 30.24 in ENE 3.0 mph 6.0 mph 52% 0.00 in 56 W/m2
07:28 52.9 °F 35.7 °F 30.24 in East 2.0 mph 6.0 mph 52% 0.00 in 60 W/m2
07:34 52.9 °F 36.7 °F 30.24 in NE 2.0 mph 4.0 mph 54% 0.00 in 58 W/m2
07:40 53.0 °F 35.8 °F 30.24 in ENE 2.0 mph 7.0 mph 52% 0.00 in 58 W/m2
07:46 53.0 °F 35.3 °F 30.24 in East 3.0 mph 8.0 mph 51% 0.00 in 88 W/m2
07:52 53.2 °F 35.5 °F 30.24 in ESE 3.0 mph 5.0 mph 51% 0.00 in 107 W/m2
07:58 53.4 °F 35.7 °F 30.25 in ENE 2.0 mph 5.0 mph 51% 0.00 in 116 W/m2
08:04 53.5 °F 35.8 °F 30.24 in ENE 3.0 mph 3.0 mph 51% 0.00 in 104 W/m2
08:12 53.6 °F 36.4 °F 30.24 in ENE 3.0 mph 4.0 mph 52% 0.00 in 102 W/m2
08:18 54.2 °F 36.5 °F 30.24 in ENE 3.0 mph 4.0 mph 51% 0.00 in 325 W/m2
08:24 55.2 °F 37.4 °F 30.24 in NE 3.0 mph 5.0 mph 51% 0.00 in 420 W/m2
08:30 55.8 °F 37.4 °F 30.24 in East 4.0 mph 7.0 mph 50% 0.00 in 457 W/m2
08:36 56.3 °F 37.4 °F 30.24 in East 4.0 mph 7.0 mph 49% 0.00 in 489 W/m2
08:44 57.0 °F 38.0 °F 30.24 in SSE 4.0 mph 6.0 mph 49% 0.00 in 494 W/m2
08:50 57.6 °F 38.6 °F 30.23 in ESE 4.0 mph 4.0 mph 49% 0.00 in 320 W/m2
08:56 57.3 °F 38.3 °F 30.23 in East 4.0 mph 4.0 mph 49% 0.00 in 360 W/m2
09:02 58.5 °F 39.4 °F 30.22 in NE 4.0 mph 5.0 mph 49% 0.00 in 661 W/m2
09:08 59.1 °F 39.4 °F 30.23 in SE 4.0 mph 5.0 mph 48% 0.00 in 394 W/m2
09:14 59.7 °F 40.5 °F 30.22 in SE 4.0 mph 7.0 mph 49% 0.00 in 671 W/m2
09:20 60.2 °F 41.0 °F 30.22 in ENE 4.0 mph 7.0 mph 49% 0.00 in 686 W/m2
09:26 60.0 °F 39.7 °F 30.22 in SE 4.0 mph 7.0 mph 47% 0.00 in 668 W/m2
09:32 60.7 °F 41.4 °F 30.22 in East 4.0 mph 5.0 mph 49% 0.00 in 290 W/m2
09:38 60.9 °F 41.1 °F 30.22 in ENE 4.0 mph 7.0 mph 48% 0.00 in 786 W/m2
09:44 60.5 °F 41.8 °F 30.22 in East 4.0 mph 4.0 mph 50% 0.00 in 285 W/m2
09:50 61.0 °F 42.2 °F 30.21 in SE 5.0 mph 5.0 mph 50% 0.00 in 360 W/m2
09:56 60.8 °F 41.5 °F 30.20 in SE 6.0 mph 6.0 mph 49% 0.00 in 297 W/m2
10:02 60.4 °F 41.1 °F 30.20 in SE 5.0 mph 5.0 mph 49% 0.00 in 281 W/m2
10:08 61.5 °F 42.7 °F 30.20 in ENE 4.0 mph 10.0 mph 50% 0.00 in 585 W/m2
10:14 62.1 °F 43.7 °F 30.20 in East 4.0 mph 4.0 mph 51% 0.00 in 598 W/m2
10:20 62.9 °F 44.0 °F 30.19 in NE 4.0 mph 4.0 mph 50% 0.00 in 677 W/m2
10:26 63.2 °F 44.8 °F 30.19 in SE 4.0 mph 8.0 mph 51% 0.00 in 763 W/m2
10:32 63.3 °F 44.9 °F 30.19 in South 4.0 mph 8.0 mph 51% 0.00 in 476 W/m2
10:38 64.2 °F 44.6 °F 30.20 in East 4.0 mph 8.0 mph 49% 0.00 in 803 W/m2
10:44 64.8 °F 44.6 °F 30.20 in East 4.0 mph 6.0 mph 48% 0.00 in 840 W/m2
10:50 66.2 °F 44.8 °F 30.20 in SSE 3.0 mph 4.0 mph 46% 0.00 in 833 W/m2
10:56 66.1 °F 44.7 °F 30.20 in SE 3.0 mph 5.0 mph 46% 0.00 in 587 W/m2
11:02 66.5 °F 43.3 °F 30.19 in East 4.0 mph 5.0 mph 43% 0.00 in 429 W/m2
11:08 66.7 °F 42.2 °F 30.19 in SSE 6.0 mph 8.0 mph 41% 0.00 in 533 W/m2
11:14 67.0 °F 43.1 °F 30.18 in SE 7.0 mph 7.0 mph 42% 0.00 in 497 W/m2
11:20 67.3 °F 44.0 °F 30.17 in SSE 6.0 mph 6.0 mph 43% 0.00 in 450 W/m2
11:26 67.9 °F 42.7 °F 30.17 in South 6.0 mph 11.0 mph 40% 0.00 in 988 W/m2
11:32 68.9 °F 42.9 °F 30.17 in SE 7.0 mph 7.0 mph 39% 0.00 in 606 W/m2
11:38 68.7 °F 45.3 °F 30.17 in SSW 6.0 mph 9.0 mph 43% 0.00 in 659 W/m2
11:44 68.9 °F 42.9 °F 30.16 in SE 7.0 mph 11.0 mph 39% 0.00 in 881 W/m2
11:50 68.6 °F 44.6 °F 30.16 in ESE 8.0 mph 8.0 mph 42% 0.00 in 531 W/m2
11:56 68.4 °F 43.1 °F 30.16 in SSE 8.0 mph 8.0 mph 40% 0.00 in 506 W/m2
12:02 68.9 °F 44.2 °F 30.16 in SSE 6.0 mph 8.0 mph 41% 0.00 in 613 W/m2
12:08 69.5 °F 46.0 °F 30.16 in SSE 5.0 mph 8.0 mph 43% 0.00 in 552 W/m2
12:14 68.9 °F 44.9 °F 30.15 in SSE 6.0 mph 10.0 mph 42% 0.00 in 264 W/m2
12:20 68.2 °F 44.8 °F 30.15 in South 6.0 mph 6.0 mph 43% 0.00 in 218 W/m2
12:26 68.5 °F 45.1 °F 30.15 in East 5.0 mph 9.0 mph 43% 0.00 in 265 W/m2
12:32 68.6 °F 45.2 °F 30.15 in SSE 5.0 mph 6.0 mph 43% 0.00 in 290 W/m2
12:38 69.1 °F 45.7 °F 30.14 in SSE 6.0 mph 6.0 mph 43% 0.00 in 475 W/m2
12:46 69.5 °F 46.6 °F 30.14 in SSW 7.0 mph 8.0 mph 44% 0.00 in 292 W/m2
12:52 69.6 °F 47.9 °F 30.14 in South 5.0 mph 7.0 mph 46% 0.00 in 236 W/m2
12:58 69.7 °F 46.8 °F 30.14 in SSE 4.0 mph 7.0 mph 44% 0.00 in 292 W/m2
13:04 69.4 °F 45.9 °F 30.13 in SSE 6.0 mph 7.0 mph 43% 0.00 in 258 W/m2
13:10 69.2 °F 45.7 °F 30.13 in SSW 6.0 mph 7.0 mph 43% 0.00 in 262 W/m2
13:16 68.9 °F 46.1 °F 30.14 in South 7.0 mph 7.0 mph 44% 0.00 in 169 W/m2
13:22 68.4 °F 45.6 °F 30.13 in SE 6.0 mph 10.0 mph 44% 0.00 in 192 W/m2
13:28 68.1 °F 45.9 °F 30.13 in South 7.0 mph 10.0 mph 45% 0.00 in 271 W/m2
13:34 68.1 °F 46.5 °F 30.13 in South 6.0 mph 7.0 mph 46% 0.00 in 190 W/m2
13:40 68.1 °F 46.5 °F 30.12 in SSW 5.0 mph 7.0 mph 46% 0.00 in 151 W/m2
13:46 67.3 °F 46.9 °F 30.12 in SSE 6.0 mph 8.0 mph 48% 0.00 in 146 W/m2
13:52 66.6 °F 46.3 °F 30.13 in South 5.0 mph 6.0 mph 48% 0.00 in 160 W/m2
13:58 66.6 °F 46.3 °F 30.13 in SSW 5.0 mph 9.0 mph 48% 0.00 in 118 W/m2
14:04 66.6 °F 46.8 °F 30.13 in SE 5.0 mph 11.0 mph 49% 0.00 in 116 W/m2
14:10 66.6 °F 45.7 °F 30.13 in SW 5.0 mph 5.0 mph 47% 0.00 in 114 W/m2
14:16 66.5 °F 44.5 °F 30.13 in SE 6.0 mph 9.0 mph 45% 0.00 in 81 W/m2
14:22 66.3 °F 43.7 °F 30.12 in South 7.0 mph 7.0 mph 44% 0.00 in 118 W/m2
14:28 66.2 °F 43.0 °F 30.12 in SW 8.0 mph 11.0 mph 43% 0.00 in 83 W/m2
14:34 65.8 °F 44.4 °F 30.12 in SSE 8.0 mph 10.0 mph 46% 0.00 in 67 W/m2
14:40 64.0 °F 46.5 °F 30.12 in SSW 7.0 mph 7.0 mph 53% 0.00 in 54 W/m2
14:46 63.3 °F 46.4 °F 30.12 in SSW 4.0 mph 7.0 mph 54% 0.00 in 67 W/m2
14:52 63.5 °F 46.1 °F 30.11 in South 4.0 mph 6.0 mph 53% 0.00 in 84 W/m2
14:58 64.4 °F 44.8 °F 30.11 in SE 6.0 mph 6.0 mph 49% 0.00 in 225 W/m2
15:04 65.2 °F 46.1 °F 30.10 in SSE 5.0 mph 6.0 mph 50% 0.00 in 276 W/m2
15:10 66.1 °F 45.3 °F 30.10 in SE 5.0 mph 7.0 mph 47% 0.00 in 438 W/m2
15:16 66.7 °F 45.8 °F 30.09 in SE 6.0 mph 11.0 mph 47% 0.00 in 290 W/m2
15:22 66.7 °F 44.7 °F 30.09 in SSE 5.0 mph 7.0 mph 45% 0.00 in 373 W/m2
15:28 67.0 °F 45.5 °F 30.09 in SE 5.0 mph 7.0 mph 46% 0.00 in 352 W/m2
15:34 67.1 °F 43.8 °F 30.09 in SSE 6.0 mph 10.0 mph 43% 0.00 in 202 W/m2
15:40 67.0 °F 43.8 °F 30.09 in SSE 6.0 mph 6.0 mph 43% 0.00 in 172 W/m2
15:46 67.2 °F 43.9 °F 30.09 in SSW 5.0 mph 6.0 mph 43% 0.00 in 141 W/m2
15:52 67.2 °F 44.5 °F 30.09 in SSE 5.0 mph 5.0 mph 44% 0.00 in 116 W/m2
15:58 67.4 °F 43.5 °F 30.09 in South 5.0 mph 8.0 mph 42% 0.00 in 141 W/m2
16:04 67.7 °F 45.0 °F 30.08 in SE 6.0 mph 6.0 mph 44% 0.00 in 274 W/m2
16:10 68.4 °F 43.8 °F 30.08 in SE 5.0 mph 11.0 mph 41% 0.00 in 513 W/m2
16:16 68.9 °F 44.2 °F 30.08 in South 6.0 mph 11.0 mph 41% 0.00 in 306 W/m2
16:22 68.7 °F 44.0 °F 30.07 in SE 7.0 mph 9.0 mph 41% 0.00 in 304 W/m2
16:28 68.7 °F 44.0 °F 30.06 in South 6.0 mph 9.0 mph 41% 0.00 in 288 W/m2
16:34 68.7 °F 44.0 °F 30.06 in SSE 7.0 mph 11.0 mph 41% 0.00 in 269 W/m2
16:40 68.7 °F 44.0 °F 30.06 in SSE 8.0 mph 9.0 mph 41% 0.00 in 218 W/m2
16:46 68.6 °F 43.3 °F 30.06 in SE 7.0 mph 9.0 mph 40% 0.00 in 185 W/m2
16:52 68.3 °F 43.0 °F 30.06 in South 7.0 mph 10.0 mph 40% 0.00 in 93 W/m2
16:58 68.0 °F 42.8 °F 30.06 in SSE 7.0 mph 10.0 mph 40% 0.00 in 79 W/m2
17:04 67.9 °F 43.3 °F 30.06 in SSE 6.0 mph 9.0 mph 41% 0.00 in 128 W/m2
17:10 68.1 °F 43.5 °F 30.06 in SSE 6.0 mph 6.0 mph 41% 0.00 in 107 W/m2
17:16 68.1 °F 42.9 °F 30.06 in SSE 6.0 mph 10.0 mph 40% 0.00 in 65 W/m2
17:22 68.0 °F 43.4 °F 30.06 in South 6.0 mph 6.0 mph 41% 0.00 in 49 W/m2
17:28 67.7 °F 43.1 °F 30.05 in SSE 6.0 mph 8.0 mph 41% 0.00 in 33 W/m2
17:34 67.5 °F 42.3 °F 30.05 in SE 7.0 mph 8.0 mph 40% 0.00 in 44 W/m2
17:40 66.8 °F 43.6 °F 30.05 in South 7.0 mph 8.0 mph 43% 0.00 in 54 W/m2
17:46 66.0 °F 44.0 °F 30.05 in SSE 7.0 mph 8.0 mph 45% 0.00 in 33 W/m2
17:52 66.1 °F 44.1 °F 30.05 in SE 6.0 mph 10.0 mph 45% 0.00 in 40 W/m2
17:58 66.4 °F 43.8 °F 30.05 in SSE 7.0 mph 10.0 mph 44% 0.00 in 33 W/m2
18:04 66.2 °F 43.6 °F 30.04 in SSW 6.0 mph 7.0 mph 44% 0.00 in 35 W/m2
18:10 66.3 °F 43.1 °F 30.05 in SE 5.0 mph 9.0 mph 43% 0.00 in 30 W/m2
18:16 66.4 °F 43.2 °F 30.05 in South 6.0 mph 9.0 mph 43% 0.00 in 28 W/m2
18:22 66.6 °F 42.2 °F 30.05 in SSE 5.0 mph 6.0 mph 41% 0.00 in 32 W/m2
18:28 66.7 °F 42.2 °F 30.05 in South 5.0 mph 6.0 mph 41% 0.00 in 19 W/m2
18:34 66.6 °F 41.5 °F 30.05 in South 4.0 mph 5.0 mph 40% 0.00 in 16 W/m2
18:40 66.4 °F 42.0 °F 30.04 in SE 3.0 mph 3.0 mph 41% 0.00 in 16 W/m2
18:46 66.4 °F 42.0 °F 30.04 in SSE 4.0 mph 5.0 mph 41% 0.00 in 12 W/m2
18:52 66.4 °F 42.0 °F 30.04 in SE 4.0 mph 8.0 mph 41% 0.00 in 7 W/m2
18:58 65.7 °F 44.9 °F 30.05 in SSW 4.0 mph 8.0 mph 47% 0.00 in 11 W/m2
19:04 63.5 °F 44.0 °F 30.05 in SSE 4.0 mph 10.0 mph 49% 0.00 in 21 W/m2
19:10 61.9 °F 47.0 °F 30.05 in South 5.0 mph 7.0 mph 58% 0.00 in 23 W/m2
19:16 61.4 °F 45.6 °F 30.05 in SSW 5.0 mph 7.0 mph 56% 0.00 in 21 W/m2
19:22 60.9 °F 46.5 °F 30.05 in South 3.0 mph 4.0 mph 59% 0.00 in 21 W/m2
19:28 60.7 °F 46.3 °F 30.04 in ESE 2.0 mph 6.0 mph 59% 0.00 in 11 W/m2
19:34 60.6 °F 49.6 °F 30.04 in SSE 2.0 mph 2.0 mph 67% 0.00 in 12 W/m2
19:40 59.7 °F 49.1 °F 30.05 in Calm   2.0 mph 68% 0.00 in 7 W/m2
19:46 59.1 °F 50.5 °F 30.04 in Calm   2.0 mph 73% 0.00 in 7 W/m2
19:52 58.6 °F 51.4 °F 30.04 in Calm     77% 0.00 in 5 W/m2
19:58 58.3 °F 51.8 °F 30.05 in Calm   1.0 mph 79% 0.00 in 0 W/m2
20:04 58.0 °F 51.9 °F 30.05 in Calm     80% 0.00 in 0 W/m2
20:10 57.9 °F 51.8 °F 30.05 in Calm     80% 0.00 in 0 W/m2
20:16 58.1 °F 51.3 °F 30.06 in SSW 1.0 mph 1.0 mph 78% 0.00 in 0 W/m2
20:22 58.3 °F 48.9 °F 30.06 in SSW 1.0 mph 2.0 mph 71% 0.00 in 0 W/m2
20:28 59.1 °F 48.9 °F 30.06 in South 2.0 mph 4.0 mph 69% 0.00 in 0 W/m2
20:34 58.7 °F 48.9 °F 30.05 in SSW 3.0 mph 5.0 mph 70% 0.21 in 0 W/m2
20:40 57.8 °F 48.8 °F 30.06 in South 3.0 mph 3.0 mph 72% 0.32 in 0 W/m2
20:46 56.9 °F 49.1 °F 30.06 in South 2.0 mph 3.0 mph 75% 0.26 in 0 W/m2
20:52 56.1 °F 49.0 °F 30.06 in SW 2.0 mph 3.0 mph 77% 0.18 in 0 W/m2
20:58 55.4 °F 49.3 °F 30.05 in South 2.0 mph 3.0 mph 80% 0.11 in 0 W/m2
21:04 55.0 °F 49.6 °F 30.05 in SE 1.0 mph 2.0 mph 82% 0.05 in 0 W/m2
21:10 54.7 °F 49.6 °F 30.04 in SE 1.0 mph 6.0 mph 83% 0.00 in 0 W/m2
21:16 54.5 °F 49.8 °F 30.03 in SE 1.0 mph 6.0 mph 84% 0.00 in 0 W/m2
21:22 54.5 °F 49.8 °F 30.03 in SE 1.0 mph 1.0 mph 84% 0.00 in 0 W/m2
21:28 54.4 °F 49.7 °F 30.03 in ENE 1.0 mph 2.0 mph 84% 0.00 in 0 W/m2
21:34 54.4 °F 50.0 °F 30.03 in ENE 1.0 mph 2.0 mph 85% 0.00 in 0 W/m2
21:40 54.4 °F 50.3 °F 30.03 in Calm     86% 0.00 in 0 W/m2
21:46 54.3 °F 50.2 °F 30.05 in Calm   2.0 mph 86% 0.32 in 0 W/m2
21:52 54.3 °F 50.5 °F 30.03 in NNE 1.0 mph 2.0 mph 87% 0.14 in 0 W/m2
21:58 54.1 °F 50.3 °F 30.03 in NE 1.0 mph 2.0 mph 87% 0.11 in 0 W/m2
22:04 54.0 °F 50.2 °F 30.03 in NE 1.0 mph 2.0 mph 87% 0.05 in 0 W/m2
22:10 54.1 °F 50.6 °F 30.03 in NE 1.0 mph 1.0 mph 88% 0.04 in 0 W/m2
22:16 54.0 °F 50.8 °F 30.03 in ENE 1.0 mph 3.0 mph 89% 0.00 in 0 W/m2
22:22 53.9 °F 50.7 °F 30.03 in ENE 1.0 mph 1.0 mph 89% 0.00 in 0 W/m2
22:28 53.9 °F 50.7 °F 30.03 in ENE 1.0 mph 1.0 mph 89% 0.00 in 0 W/m2
22:34 53.9 °F 50.7 °F 30.03 in ENE 1.0 mph 1.0 mph 89% 0.00 in 0 W/m2
22:40 54.0 °F 50.8 °F 30.03 in ENE 1.0 mph 1.0 mph 89% 0.00 in 0 W/m2
22:46 54.0 °F 50.8 °F 30.03 in Calm   1.0 mph 89% 0.00 in 0 W/m2
22:52 54.0 °F 50.8 °F 30.03 in SSE 1.0 mph 2.0 mph 89% 0.00 in 0 W/m2
22:58 54.1 °F 50.6 °F 30.03 in SSE 2.0 mph 3.0 mph 88% 0.00 in 0 W/m2
23:04 54.2 °F 50.7 °F 30.03 in SSE 1.0 mph 2.0 mph 88% 0.47 in 0 W/m2
23:12 54.1 °F 50.6 °F 30.02 in Calm   1.0 mph 88% 0.10 in 0 W/m2
23:18 54.0 °F 50.5 °F 30.01 in ENE 1.0 mph 3.0 mph 88% 0.27 in 0 W/m2
23:24 53.9 °F 50.4 °F 30.01 in ENE 1.0 mph 3.0 mph 88% 0.16 in 0 W/m2
23:30 53.8 °F 50.6 °F 30.00 in ENE 1.0 mph 1.0 mph 89% 0.44 in 0 W/m2
23:36 53.7 °F 50.5 °F 30.00 in ENE 1.0 mph 3.0 mph 89% 0.17 in 0 W/m2
23:42 53.5 °F 50.3 °F 30.00 in ENE 1.0 mph 1.0 mph 89% 0.08 in 0 W/m2
23:48 53.6 °F 50.7 °F 30.00 in ENE 1.0 mph 1.0 mph 90% 0.08 in 0 W/m2
23:54 53.6 °F 50.7 °F 30.00 in Calm   2.0 mph 90% 0.04 in 0 W/m2
Country Meadow, Clay, NY, USA
Compliments of Weather Underground - 2 mb